METAR Data
IDs: Format: Raw Decoded Include TAF

Data at: 0917 UTC 20 Sep 2018

KPRC 200853Z AUTO 21003KT 10SM CLR 14/11 A3001 RMK AO2 SLP092 T01390111 55002
KPRC 200753Z AUTO 00000KT 10SM CLR 15/12 A3001 RMK AO2 SLP091 T01500117
KPRC 200653Z AUTO 25004KT 10SM BKN055 17/12 A3001 RMK AO2 SLP091 T01670117 402500161
KPRC 200553Z AUTO 00000KT 10SM BKN039 17/13 A3001 RMK AO2 SLP090 T01720128 10206 20172 51009
KPRC 200453Z AUTO 17003KT 10SM CLR 18/13 A3001 RMK AO2 SLP088 T01780133
KPRC 200353Z 16007KT 10SM CLR 18/14 A3000 RMK AO2 SLP087 T01780139
KPRC 200253Z 13008KT 10SM CLR 18/14 A2998 RMK AO2 SLP079 T01830139 53008
KPRC 200153Z 13007KT 10SM CLR 19/14 A2996 RMK AO2 SLP071 T01940139
KPRC 200053Z 12009KT 10SM CLR 20/13 A2995 RMK AO2 SLP070 T02000133
KPRC 192353Z 12012KT 9SM CLR 21/13 A2995 RMK AO2 SLP068 60000 T02060133 10250 20206 58017
KPRC 192253Z 13011KT 10SM FEW060 BKN110 22/12 A2996 RMK AO2 LTG DSNT W SLP070 T02220117
KPRC 192153Z 14007KT 10SM FEW070 OVC100 22/13 A3000 RMK AO2 SLP085 T02220128
KPRC 192053Z 18009KT 10SM SCT120 23/11 A3001 RMK AO2 SLP084 60000 T02280111 56013
KPRC 191953Z 14008KT 10SM FEW080 BKN100 22/15 A3003 RMK AO2 LTG DSNT NW RAB28E37 SLP087 P0000 T02170150
KPRC 191853Z 13011KT 10SM OVC100 21/14 A3003 RMK AO2 LTG DSNT W AND NW SLP088 T02110144
KPRC 191753Z 13011KT 10SM SCT040 BKN110 22/15 A3005 RMK AO2 SLP096 60000 T02170150 10228 20183 51006
KPRC 191653Z 14015G20KT 10SM SCT040 BKN110 22/13 A3005 RMK AO2 SLP097 T02220133
KPRC 191553Z 16004KT 10SM OVC100 21/16 A3004 RMK AO2 RAB02E48 SLP091 P0000 T02110156
KPRC 191453Z 19005KT 10SM BKN095 OVC110 20/14 A3003 RMK AO2 SLP090 T02000139 53007
KPRC 191353Z 00000KT 10SM CLR 19/12 A3002 RMK AO2 SLP084 T01940122
KPRC 191253Z 19003KT 10SM CLR 19/12 A3001 RMK AO2 SLP076 T01890117
KPRC 191153Z AUTO 16003KT 10SM BKN095 19/11 A3001 RMK AO2 SLP069 T01940111 10233 20178 56005
KPRC 191053Z AUTO 19005KT 10SM CLR 18/11 A3001 RMK AO2 SLP070 T01830106
KPRC 190953Z AUTO 00000KT 10SM CLR 18/08 A3001 RMK AO2 SLP071 T01780083
KPRC 190853Z AUTO 19004KT 10SM FEW110 19/11 A3003 RMK AO2 SLP074 T01940106 58001
KPRC 190753Z AUTO 00000KT 10SM CLR 22/09 A3002 RMK AO2 SLP069 T02220089
KPRC 190653Z AUTO 16003KT 10SM SCT110 23/09 A3003 RMK AO2 SLP072 T02280089 403220161
KPRC 190553Z AUTO 20004KT 10SM CLR 22/09 A3003 RMK AO2 SLP075 T02220089 10306 20206 58000
KPRC 190453Z AUTO 00000KT 10SM CLR 21/10 A3003 RMK AO2 SLP079 T02060100
KPRC 190353Z 00000KT 10SM CLR 22/08 A3003 RMK AO2 SLP082 T02220083
KPRC 190253Z 21003KT 10SM CLR 23/08 A3003 RMK AO2 SLP087 T02330078 53003
KPRC 190153Z 23005KT 10SM CLR 25/07 A3001 RMK AO2 SLP083 T02500067
KPRC 190053Z 24009KT 10SM CLR 29/06 A3001 RMK AO2 SLP078 T02890056
KPRC 182353Z 23009G18KT 10SM CLR 31/06 A3002 RMK AO2 SLP078 T03060056 10322 20294 56013
KPRC 182253Z 23009G17KT 10SM CLR 31/05 A3003 RMK AO2 SLP082 T03110050
KPRC 182153Z 26009G20KT 10SM FEW100 32/05 A3004 RMK AO2 SLP084 T03170050